sensor_id;sensor_type;location;lat;lon;timestamp;temperature;humidity
15288;DHT22;7745;48.708;9.026;2022-11-20T00:00:20;5.40;99.90
15288;DHT22;7745;48.708;9.026;2022-11-20T00:02:49;5.20;99.90
15288;DHT22;7745;48.708;9.026;2022-11-20T00:05:15;5.20;99.90
15288;DHT22;7745;48.708;9.026;2022-11-20T00:07:43;5.20;99.90
15288;DHT22;7745;48.708;9.026;2022-11-20T00:10:10;5.20;99.90
15288;DHT22;7745;48.708;9.026;2022-11-20T00:12:38;5.20;99.90
15288;DHT22;7745;48.708;9.026;2022-11-20T00:15:06;5.20;99.90
15288;DHT22;7745;48.708;9.026;2022-11-20T00:17:33;5.20;99.90
15288;DHT22;7745;48.708;9.026;2022-11-20T00:20:00;5.20;99.90
15288;DHT22;7745;48.708;9.026;2022-11-20T00:22:27;5.20;99.90
15288;DHT22;7745;48.708;9.026;2022-11-20T00:24:53;5.40;99.90
15288;DHT22;7745;48.708;9.026;2022-11-20T00:27:22;5.20;99.90
15288;DHT22;7745;48.708;9.026;2022-11-20T00:29:50;5.20;99.90
15288;DHT22;7745;48.708;9.026;2022-11-20T00:32:17;5.40;99.90
15288;DHT22;7745;48.708;9.026;2022-11-20T00:34:44;5.20;99.90
15288;DHT22;7745;48.708;9.026;2022-11-20T00:37:11;5.30;99.90
15288;DHT22;7745;48.708;9.026;2022-11-20T00:39:38;5.30;99.90
15288;DHT22;7745;48.708;9.026;2022-11-20T00:42:05;5.50;99.90
15288;DHT22;7745;48.708;9.026;2022-11-20T00:44:31;5.30;99.90
15288;DHT22;7745;48.708;9.026;2022-11-20T00:47:00;5.40;99.90
15288;DHT22;7745;48.708;9.026;2022-11-20T00:49:27;5.30;99.90
15288;DHT22;7745;48.708;9.026;2022-11-20T00:51:53;5.20;99.90
15288;DHT22;7745;48.708;9.026;2022-11-20T00:54:20;5.20;99.90
15288;DHT22;7745;48.708;9.026;2022-11-20T00:56:47;5.20;99.90
15288;DHT22;7745;48.708;9.026;2022-11-20T00:59:14;5.20;99.90
15288;DHT22;7745;48.708;9.026;2022-11-20T01:01:41;5.40;99.90
15288;DHT22;7745;48.708;9.026;2022-11-20T01:04:09;5.10;99.90
15288;DHT22;7745;48.708;9.026;2022-11-20T01:06:37;5.30;99.90
15288;DHT22;7745;48.708;9.026;2022-11-20T01:09:06;5.00;99.90
15288;DHT22;7745;48.708;9.026;2022-11-20T01:11:34;5.00;99.90
15288;DHT22;7745;48.708;9.026;2022-11-20T01:14:03;5.00;99.90
15288;DHT22;7745;48.708;9.026;2022-11-20T01:16:32;5.00;99.90
15288;DHT22;7745;48.708;9.026;2022-11-20T01:19:01;4.90;99.90
15288;DHT22;7745;48.708;9.026;2022-11-20T01:21:31;4.90;99.90
15288;DHT22;7745;48.708;9.026;2022-11-20T01:23:59;4.80;99.90
15288;DHT22;7745;48.708;9.026;2022-11-20T01:26:28;4.80;99.90
15288;DHT22;7745;48.708;9.026;2022-11-20T01:28:55;4.70;99.90
15288;DHT22;7745;48.708;9.026;2022-11-20T01:31:24;4.70;99.90
15288;DHT22;7745;48.708;9.026;2022-11-20T01:33:53;4.70;99.90
15288;DHT22;7745;48.708;9.026;2022-11-20T01:36:22;4.70;99.90
15288;DHT22;7745;48.708;9.026;2022-11-20T01:38:53;4.90;99.90
15288;DHT22;7745;48.708;9.026;2022-11-20T01:41:20;4.60;99.90
15288;DHT22;7745;48.708;9.026;2022-11-20T01:44:05;4.60;99.90
15288;DHT22;7745;48.708;9.026;2022-11-20T01:46:33;4.60;99.90
15288;DHT22;7745;48.708;9.026;2022-11-20T01:49:02;4.50;99.90
15288;DHT22;7745;48.708;9.026;2022-11-20T01:51:33;4.60;99.90
15288;DHT22;7745;48.708;9.026;2022-11-20T01:54:05;4.50;99.90
15288;DHT22;7745;48.708;9.026;2022-11-20T01:56:36;4.80;99.90
15288;DHT22;7745;48.708;9.026;2022-11-20T01:59:05;4.40;99.90
15288;DHT22;7745;48.708;9.026;2022-11-20T02:01:33;4.50;99.90
15288;DHT22;7745;48.708;9.026;2022-11-20T02:04:00;4.30;99.90
15288;DHT22;7745;48.708;9.026;2022-11-20T02:06:30;4.30;99.90
15288;DHT22;7745;48.708;9.026;2022-11-20T02:08:58;4.20;99.90
15288;DHT22;7745;48.708;9.026;2022-11-20T02:11:26;4.30;99.90
15288;DHT22;7745;48.708;9.026;2022-11-20T02:13:53;4.20;99.90
15288;DHT22;7745;48.708;9.026;2022-11-20T02:16:22;4.60;99.90
15288;DHT22;7745;48.708;9.026;2022-11-20T02:18:50;4.20;99.90
15288;DHT22;7745;48.708;9.026;2022-11-20T02:21:27;4.20;99.90
15288;DHT22;7745;48.708;9.026;2022-11-20T02:24:00;4.20;99.90
15288;DHT22;7745;48.708;9.026;2022-11-20T02:26:28;4.20;99.90
15288;DHT22;7745;48.708;9.026;2022-11-20T02:28:57;4.10;99.90
15288;DHT22;7745;48.708;9.026;2022-11-20T02:31:24;4.00;99.90
15288;DHT22;7745;48.708;9.026;2022-11-20T02:33:55;4.10;99.90
15288;DHT22;7745;48.708;9.026;2022-11-20T02:36:22;4.00;99.90
15288;DHT22;7745;48.708;9.026;2022-11-20T02:38:50;4.10;99.90
15288;DHT22;7745;48.708;9.026;2022-11-20T02:41:19;4.10;99.90
15288;DHT22;7745;48.708;9.026;2022-11-20T02:43:46;4.20;99.90
15288;DHT22;7745;48.708;9.026;2022-11-20T02:46:13;4.20;99.90
15288;DHT22;7745;48.708;9.026;2022-11-20T02:48:39;4.30;99.90
15288;DHT22;7745;48.708;9.026;2022-11-20T02:51:06;4.60;99.90
15288;DHT22;7745;48.708;9.026;2022-11-20T02:53:33;4.90;99.90
15288;DHT22;7745;48.708;9.026;2022-11-20T02:56:00;4.50;99.90
15288;DHT22;7745;48.708;9.026;2022-11-20T02:58:29;4.60;99.90
15288;DHT22;7745;48.708;9.026;2022-11-20T03:00:56;4.60;99.90
15288;DHT22;7745;48.708;9.026;2022-11-20T03:03:23;4.80;99.90
15288;DHT22;7745;48.708;9.026;2022-11-20T03:05:50;4.90;99.90
15288;DHT22;7745;48.708;9.026;2022-11-20T03:08:17;4.70;99.90
15288;DHT22;7745;48.708;9.026;2022-11-20T03:10:43;4.70;99.90
15288;DHT22;7745;48.708;9.026;2022-11-20T03:13:10;5.20;99.90
15288;DHT22;7745;48.708;9.026;2022-11-20T03:15:38;4.80;99.90
15288;DHT22;7745;48.708;9.026;2022-11-20T03:18:05;4.80;99.90
15288;DHT22;7745;48.708;9.026;2022-11-20T03:20:33;4.80;99.90
15288;DHT22;7745;48.708;9.026;2022-11-20T03:23:00;4.70;99.90
15288;DHT22;7745;48.708;9.026;2022-11-20T03:25:27;4.70;99.90
15288;DHT22;7745;48.708;9.026;2022-11-20T03:27:54;5.00;99.90
15288;DHT22;7745;48.708;9.026;2022-11-20T03:30:21;4.70;99.90
15288;DHT22;7745;48.708;9.026;2022-11-20T03:32:53;4.60;99.90
15288;DHT22;7745;48.708;9.026;2022-11-20T03:35:20;4.60;99.90
15288;DHT22;7745;48.708;9.026;2022-11-20T03:37:47;4.50;99.90
15288;DHT22;7745;48.708;9.026;2022-11-20T03:40:14;4.50;99.90
15288;DHT22;7745;48.708;9.026;2022-11-20T03:42:41;4.40;99.90
15288;DHT22;7745;48.708;9.026;2022-11-20T03:45:14;4.40;99.90
15288;DHT22;7745;48.708;9.026;2022-11-20T03:47:42;4.30;99.90
15288;DHT22;7745;48.708;9.026;2022-11-20T03:50:12;4.50;99.90
15288;DHT22;7745;48.708;9.026;2022-11-20T03:52:39;4.50;99.90
15288;DHT22;7745;48.708;9.026;2022-11-20T03:55:07;4.20;99.90
15288;DHT22;7745;48.708;9.026;2022-11-20T03:57:34;4.20;99.90
15288;DHT22;7745;48.708;9.026;2022-11-20T04:00:02;4.20;99.90
15288;DHT22;7745;48.708;9.026;2022-11-20T04:02:30;4.20;99.90
15288;DHT22;7745;48.708;9.026;2022-11-20T04:04:57;4.20;99.90
15288;DHT22;7745;48.708;9.026;2022-11-20T04:07:25;4.20;99.90
15288;DHT22;7745;48.708;9.026;2022-11-20T04:09:52;4.20;99.90
15288;DHT22;7745;48.708;9.026;2022-11-20T04:12:18;4.20;99.90
15288;DHT22;7745;48.708;9.026;2022-11-20T04:14:45;4.20;99.90
15288;DHT22;7745;48.708;9.026;2022-11-20T04:17:12;4.50;99.90
15288;DHT22;7745;48.708;9.026;2022-11-20T04:19:39;4.20;99.90
15288;DHT22;7745;48.708;9.026;2022-11-20T04:22:06;4.20;99.90
15288;DHT22;7745;48.708;9.026;2022-11-20T04:24:34;4.60;99.90
15288;DHT22;7745;48.708;9.026;2022-11-20T04:27:01;4.20;99.90
15288;DHT22;7745;48.708;9.026;2022-11-20T04:29:27;4.30;99.90
15288;DHT22;7745;48.708;9.026;2022-11-20T04:31:54;4.30;99.90
15288;DHT22;7745;48.708;9.026;2022-11-20T04:34:21;4.30;99.90
15288;DHT22;7745;48.708;9.026;2022-11-20T04:36:48;4.40;99.90
15288;DHT22;7745;48.708;9.026;2022-11-20T04:39:15;4.40;99.90
15288;DHT22;7745;48.708;9.026;2022-11-20T04:41:44;4.40;99.90
15288;DHT22;7745;48.708;9.026;2022-11-20T04:44:11;4.50;99.90
15288;DHT22;7745;48.708;9.026;2022-11-20T04:46:39;4.50;99.90
15288;DHT22;7745;48.708;9.026;2022-11-20T04:49:07;4.50;99.90
15288;DHT22;7745;48.708;9.026;2022-11-20T04:51:34;4.60;99.90
15288;DHT22;7745;48.708;9.026;2022-11-20T04:54:01;4.90;99.90
15288;DHT22;7745;48.708;9.026;2022-11-20T04:56:28;4.70;99.90
15288;DHT22;7745;48.708;9.026;2022-11-20T04:59:00;4.70;99.90
15288;DHT22;7745;48.708;9.026;2022-11-20T05:01:26;4.70;99.90
15288;DHT22;7745;48.708;9.026;2022-11-20T05:03:53;4.80;99.90
15288;DHT22;7745;48.708;9.026;2022-11-20T05:06:22;4.80;99.90
15288;DHT22;7745;48.708;9.026;2022-11-20T05:08:49;4.90;99.90
15288;DHT22;7745;48.708;9.026;2022-11-20T05:11:19;4.90;99.90
15288;DHT22;7745;48.708;9.026;2022-11-20T05:13:46;4.90;99.90
15288;DHT22;7745;48.708;9.026;2022-11-20T05:16:16;5.00;99.90
15288;DHT22;7745;48.708;9.026;2022-11-20T05:18:43;5.00;99.90
15288;DHT22;7745;48.708;9.026;2022-11-20T05:21:10;5.00;99.90
15288;DHT22;7745;48.708;9.026;2022-11-20T05:23:38;5.30;99.90
15288;DHT22;7745;48.708;9.026;2022-11-20T05:26:07;5.30;99.90
15288;DHT22;7745;48.708;9.026;2022-11-20T05:28:35;5.00;99.90
15288;DHT22;7745;48.708;9.026;2022-11-20T05:31:06;5.30;99.90
15288;DHT22;7745;48.708;9.026;2022-11-20T05:33:35;5.10;99.90
15288;DHT22;7745;48.708;9.026;2022-11-20T05:36:02;5.10;99.90
15288;DHT22;7745;48.708;9.026;2022-11-20T05:38:30;5.10;99.90
15288;DHT22;7745;48.708;9.026;2022-11-20T05:41:03;5.10;99.90
15288;DHT22;7745;48.708;9.026;2022-11-20T05:43:32;5.10;99.90
15288;DHT22;7745;48.708;9.026;2022-11-20T05:46:00;5.10;99.90
15288;DHT22;7745;48.708;9.026;2022-11-20T05:48:28;5.30;99.90
15288;DHT22;7745;48.708;9.026;2022-11-20T05:50:58;5.20;99.90
15288;DHT22;7745;48.708;9.026;2022-11-20T05:53:25;5.20;99.90
15288;DHT22;7745;48.708;9.026;2022-11-20T05:55:58;5.20;99.90
15288;DHT22;7745;48.708;9.026;2022-11-20T05:58:26;5.10;99.90
15288;DHT22;7745;48.708;9.026;2022-11-20T06:00:53;5.20;99.90
15288;DHT22;7745;48.708;9.026;2022-11-20T06:03:20;5.10;99.90
15288;DHT22;7745;48.708;9.026;2022-11-20T06:05:47;5.10;99.90
15288;DHT22;7745;48.708;9.026;2022-11-20T06:08:15;5.10;99.90
15288;DHT22;7745;48.708;9.026;2022-11-20T06:10:42;5.20;99.90
15288;DHT22;7745;48.708;9.026;2022-11-20T06:13:09;5.20;99.90
15288;DHT22;7745;48.708;9.026;2022-11-20T06:15:36;5.20;99.90
15288;DHT22;7745;48.708;9.026;2022-11-20T06:18:03;5.80;99.90
15288;DHT22;7745;48.708;9.026;2022-11-20T06:20:30;5.20;99.90
15288;DHT22;7745;48.708;9.026;2022-11-20T06:22:56;5.20;99.90
15288;DHT22;7745;48.708;9.026;2022-11-20T06:25:25;5.40;99.90
15288;DHT22;7745;48.708;9.026;2022-11-20T06:27:52;5.20;99.90
15288;DHT22;7745;48.708;9.026;2022-11-20T06:30:18;5.20;99.90
15288;DHT22;7745;48.708;9.026;2022-11-20T06:32:45;5.20;99.90
15288;DHT22;7745;48.708;9.026;2022-11-20T06:35:12;5.20;99.90
15288;DHT22;7745;48.708;9.026;2022-11-20T06:37:40;5.20;99.90
15288;DHT22;7745;48.708;9.026;2022-11-20T06:40:08;5.20;99.90
15288;DHT22;7745;48.708;9.026;2022-11-20T06:42:37;5.20;99.90
15288;DHT22;7745;48.708;9.026;2022-11-20T06:45:04;5.50;99.90
15288;DHT22;7745;48.708;9.026;2022-11-20T06:47:31;5.20;99.90
15288;DHT22;7745;48.708;9.026;2022-11-20T06:49:58;5.30;99.90
15288;DHT22;7745;48.708;9.026;2022-11-20T06:52:25;5.20;99.90
15288;DHT22;7745;48.708;9.026;2022-11-20T06:54:52;5.20;99.90
15288;DHT22;7745;48.708;9.026;2022-11-20T06:57:19;5.20;99.90
15288;DHT22;7745;48.708;9.026;2022-11-20T06:59:47;5.20;99.90
15288;DHT22;7745;48.708;9.026;2022-11-20T07:02:14;5.40;99.90
15288;DHT22;7745;48.708;9.026;2022-11-20T07:04:43;5.20;99.90
15288;DHT22;7745;48.708;9.026;2022-11-20T07:07:13;5.40;99.90
15288;DHT22;7745;48.708;9.026;2022-11-20T07:09:40;5.20;99.90
15288;DHT22;7745;48.708;9.026;2022-11-20T07:12:08;5.20;99.90
15288;DHT22;7745;48.708;9.026;2022-11-20T07:14:35;5.20;99.90
15288;DHT22;7745;48.708;9.026;2022-11-20T07:17:03;5.60;99.90
15288;DHT22;7745;48.708;9.026;2022-11-20T07:19:30;5.50;99.90
15288;DHT22;7745;48.708;9.026;2022-11-20T07:21:57;5.20;99.90
15288;DHT22;7745;48.708;9.026;2022-11-20T07:24:24;5.50;99.90
15288;DHT22;7745;48.708;9.026;2022-11-20T07:26:50;5.20;99.90
15288;DHT22;7745;48.708;9.026;2022-11-20T07:29:17;5.70;99.90
15288;DHT22;7745;48.708;9.026;2022-11-20T07:31:44;5.20;99.90
15288;DHT22;7745;48.708;9.026;2022-11-20T07:34:12;5.30;99.90
15288;DHT22;7745;48.708;9.026;2022-11-20T07:36:39;5.20;99.90
15288;DHT22;7745;48.708;9.026;2022-11-20T07:39:06;5.60;99.90
15288;DHT22;7745;48.708;9.026;2022-11-20T07:41:33;5.20;99.90
15288;DHT22;7745;48.708;9.026;2022-11-20T07:44:00;5.20;99.90
15288;DHT22;7745;48.708;9.026;2022-11-20T07:46:27;5.30;99.90
15288;DHT22;7745;48.708;9.026;2022-11-20T07:48:54;5.40;99.90
15288;DHT22;7745;48.708;9.026;2022-11-20T07:51:22;5.40;99.90
15288;DHT22;7745;48.708;9.026;2022-11-20T07:53:52;5.50;99.90
15288;DHT22;7745;48.708;9.026;2022-11-20T07:56:19;5.90;99.90
15288;DHT22;7745;48.708;9.026;2022-11-20T07:58:46;5.60;99.90
15288;DHT22;7745;48.708;9.026;2022-11-20T08:01:14;5.60;99.90
15288;DHT22;7745;48.708;9.026;2022-11-20T08:03:40;5.70;99.90
15288;DHT22;7745;48.708;9.026;2022-11-20T08:06:07;5.70;99.90
15288;DHT22;7745;48.708;9.026;2022-11-20T08:08:36;5.80;99.90
15288;DHT22;7745;48.708;9.026;2022-11-20T08:11:04;5.90;99.90
15288;DHT22;7745;48.708;9.026;2022-11-20T08:13:49;6.20;99.90
15288;DHT22;7745;48.708;9.026;2022-11-20T08:16:33;5.80;99.90
15288;DHT22;7745;48.708;9.026;2022-11-20T08:19:00;5.80;99.90
15288;DHT22;7745;48.708;9.026;2022-11-20T08:21:27;5.80;99.90
15288;DHT22;7745;48.708;9.026;2022-11-20T08:23:55;5.90;99.90
15288;DHT22;7745;48.708;9.026;2022-11-20T08:26:23;5.90;99.90
15288;DHT22;7745;48.708;9.026;2022-11-20T08:28:53;5.90;99.90
15288;DHT22;7745;48.708;9.026;2022-11-20T08:31:21;5.90;99.90
15288;DHT22;7745;48.708;9.026;2022-11-20T08:33:48;6.30;99.90
15288;DHT22;7745;48.708;9.026;2022-11-20T08:36:16;6.40;99.90
15288;DHT22;7745;48.708;9.026;2022-11-20T08:38:47;6.10;99.90
15288;DHT22;7745;48.708;9.026;2022-11-20T08:41:16;6.00;99.90
15288;DHT22;7745;48.708;9.026;2022-11-20T08:43:54;6.30;99.90
15288;DHT22;7745;48.708;9.026;2022-11-20T08:46:22;6.50;99.90
15288;DHT22;7745;48.708;9.026;2022-11-20T08:48:49;6.70;99.90
15288;DHT22;7745;48.708;9.026;2022-11-20T08:51:17;6.40;99.90
15288;DHT22;7745;48.708;9.026;2022-11-20T08:53:44;6.30;99.90
15288;DHT22;7745;48.708;9.026;2022-11-20T08:56:11;6.50;99.90
15288;DHT22;7745;48.708;9.026;2022-11-20T08:58:40;7.10;99.90
15288;DHT22;7745;48.708;9.026;2022-11-20T09:01:07;6.80;99.90
15288;DHT22;7745;48.708;9.026;2022-11-20T09:03:37;6.80;99.90
15288;DHT22;7745;48.708;9.026;2022-11-20T09:06:06;6.70;99.90
15288;DHT22;7745;48.708;9.026;2022-11-20T09:08:36;6.50;99.90
15288;DHT22;7745;48.708;9.026;2022-11-20T09:11:04;6.70;99.90
15288;DHT22;7745;48.708;9.026;2022-11-20T09:13:33;6.50;99.90
15288;DHT22;7745;48.708;9.026;2022-11-20T09:16:02;6.40;99.90
15288;DHT22;7745;48.708;9.026;2022-11-20T09:18:30;6.80;99.90
15288;DHT22;7745;48.708;9.026;2022-11-20T09:20:58;6.40;99.90
15288;DHT22;7745;48.708;9.026;2022-11-20T09:23:26;6.70;99.90
15288;DHT22;7745;48.708;9.026;2022-11-20T09:25:53;6.60;99.90
15288;DHT22;7745;48.708;9.026;2022-11-20T09:28:25;6.50;99.90
15288;DHT22;7745;48.708;9.026;2022-11-20T09:30:51;6.70;99.90
15288;DHT22;7745;48.708;9.026;2022-11-20T09:33:20;6.60;99.90
15288;DHT22;7745;48.708;9.026;2022-11-20T09:35:47;6.90;99.90
15288;DHT22;7745;48.708;9.026;2022-11-20T09:38:14;6.80;99.90
15288;DHT22;7745;48.708;9.026;2022-11-20T09:40:45;6.50;99.90
15288;DHT22;7745;48.708;9.026;2022-11-20T09:43:17;6.40;99.90
15288;DHT22;7745;48.708;9.026;2022-11-20T09:45:54;6.40;99.90
15288;DHT22;7745;48.708;9.026;2022-11-20T09:48:42;6.40;99.90
15288;DHT22;7745;48.708;9.026;2022-11-20T09:51:20;6.50;99.90
15288;DHT22;7745;48.708;9.026;2022-11-20T09:54:00;6.50;99.90
15288;DHT22;7745;48.708;9.026;2022-11-20T09:56:41;6.60;99.90
15288;DHT22;7745;48.708;9.026;2022-11-20T09:59:21;6.50;99.90
15288;DHT22;7745;48.708;9.026;2022-11-20T10:01:49;6.50;99.90
15288;DHT22;7745;48.708;9.026;2022-11-20T10:04:20;6.60;99.90
15288;DHT22;7745;48.708;9.026;2022-11-20T10:06:55;6.60;99.90
15288;DHT22;7745;48.708;9.026;2022-11-20T10:09:28;6.50;99.90
15288;DHT22;7745;48.708;9.026;2022-11-20T10:12:06;6.60;99.90
15288;DHT22;7745;48.708;9.026;2022-11-20T10:14:42;6.40;99.90
15288;DHT22;7745;48.708;9.026;2022-11-20T10:17:17;6.40;99.90
15288;DHT22;7745;48.708;9.026;2022-11-20T10:19:56;6.40;99.90
15288;DHT22;7745;48.708;9.026;2022-11-20T10:22:40;6.60;99.90
15288;DHT22;7745;48.708;9.026;2022-11-20T10:25:14;6.30;99.90
15288;DHT22;7745;48.708;9.026;2022-11-20T10:28:06;6.40;99.90
15288;DHT22;7745;48.708;9.026;2022-11-20T10:30:40;6.20;99.90
15288;DHT22;7745;48.708;9.026;2022-11-20T10:33:17;6.60;99.90
15288;DHT22;7745;48.708;9.026;2022-11-20T10:35:52;6.50;99.90
15288;DHT22;7745;48.708;9.026;2022-11-20T10:38:21;6.70;99.90
15288;DHT22;7745;48.708;9.026;2022-11-20T10:40:52;6.50;99.90
15288;DHT22;7745;48.708;9.026;2022-11-20T10:43:40;6.70;99.90
15288;DHT22;7745;48.708;9.026;2022-11-20T10:46:12;6.40;99.90
15288;DHT22;7745;48.708;9.026;2022-11-20T10:48:43;6.30;99.90
15288;DHT22;7745;48.708;9.026;2022-11-20T10:51:30;6.70;99.90
15288;DHT22;7745;48.708;9.026;2022-11-20T10:54:05;6.40;99.90
15288;DHT22;7745;48.708;9.026;2022-11-20T10:56:40;6.70;99.90
15288;DHT22;7745;48.708;9.026;2022-11-20T10:59:33;6.40;99.90
15288;DHT22;7745;48.708;9.026;2022-11-20T11:02:15;6.80;99.90
15288;DHT22;7745;48.708;9.026;2022-11-20T11:04:51;6.90;99.90
15288;DHT22;7745;48.708;9.026;2022-11-20T11:07:23;6.70;99.90
15288;DHT22;7745;48.708;9.026;2022-11-20T11:09:53;6.80;99.90
15288;DHT22;7745;48.708;9.026;2022-11-20T11:12:28;6.70;99.90
15288;DHT22;7745;48.708;9.026;2022-11-20T11:14:56;6.80;99.90
15288;DHT22;7745;48.708;9.026;2022-11-20T11:17:33;7.00;99.90
15288;DHT22;7745;48.708;9.026;2022-11-20T11:20:05;6.90;99.90
15288;DHT22;7745;48.708;9.026;2022-11-20T11:22:46;6.90;99.90
15288;DHT22;7745;48.708;9.026;2022-11-20T11:25:30;7.00;99.90
15288;DHT22;7745;48.708;9.026;2022-11-20T11:28:04;7.20;99.90
15288;DHT22;7745;48.708;9.026;2022-11-20T11:30:44;7.10;99.90
15288;DHT22;7745;48.708;9.026;2022-11-20T11:33:31;7.20;99.90
15288;DHT22;7745;48.708;9.026;2022-11-20T11:36:05;7.10;99.90
15288;DHT22;7745;48.708;9.026;2022-11-20T11:38:52;7.30;99.90
15288;DHT22;7745;48.708;9.026;2022-11-20T11:41:34;7.40;99.90
15288;DHT22;7745;48.708;9.026;2022-11-20T11:44:17;8.10;99.90
15288;DHT22;7745;48.708;9.026;2022-11-20T11:47:03;7.60;99.90
15288;DHT22;7745;48.708;9.026;2022-11-20T11:49:31;7.80;99.90
15288;DHT22;7745;48.708;9.026;2022-11-20T11:52:04;7.90;99.90
15288;DHT22;7745;48.708;9.026;2022-11-20T11:54:40;8.10;99.90
15288;DHT22;7745;48.708;9.026;2022-11-20T11:57:14;8.20;99.90
15288;DHT22;7745;48.708;9.026;2022-11-20T11:59:54;8.20;99.90
15288;DHT22;7745;48.708;9.026;2022-11-20T12:02:37;8.50;99.90
15288;DHT22;7745;48.708;9.026;2022-11-20T12:05:18;8.70;99.90
15288;DHT22;7745;48.708;9.026;2022-11-20T12:07:52;8.50;99.90
15288;DHT22;7745;48.708;9.026;2022-11-20T12:10:37;8.60;99.90
15288;DHT22;7745;48.708;9.026;2022-11-20T12:13:21;8.50;99.90
15288;DHT22;7745;48.708;9.026;2022-11-20T12:15:57;8.50;99.90
15288;DHT22;7745;48.708;9.026;2022-11-20T12:18:24;8.50;99.90
15288;DHT22;7745;48.708;9.026;2022-11-20T12:21:03;8.40;99.90
15288;DHT22;7745;48.708;9.026;2022-11-20T12:23:44;8.30;99.90
15288;DHT22;7745;48.708;9.026;2022-11-20T12:26:27;8.30;99.90
15288;DHT22;7745;48.708;9.026;2022-11-20T12:29:04;8.40;99.90
15288;DHT22;7745;48.708;9.026;2022-11-20T12:31:55;8.60;99.90
15288;DHT22;7745;48.708;9.026;2022-11-20T12:34:52;8.30;99.90
15288;DHT22;7745;48.708;9.026;2022-11-20T12:37:30;8.10;99.90
15288;DHT22;7745;48.708;9.026;2022-11-20T12:40:12;8.10;99.90
15288;DHT22;7745;48.708;9.026;2022-11-20T12:42:53;8.00;99.90
15288;DHT22;7745;48.708;9.026;2022-11-20T12:45:54;8.00;99.90
15288;DHT22;7745;48.708;9.026;2022-11-20T12:48:43;7.80;99.90
15288;DHT22;7745;48.708;9.026;2022-11-20T12:54:14;8.20;99.90
15288;DHT22;7745;48.708;9.026;2022-11-20T12:56:52;8.20;99.90
15288;DHT22;7745;48.708;9.026;2022-11-20T12:59:34;8.30;99.90
15288;DHT22;7745;48.708;9.026;2022-11-20T13:02:19;8.40;99.90
15288;DHT22;7745;48.708;9.026;2022-11-20T13:04:59;8.60;99.90
15288;DHT22;7745;48.708;9.026;2022-11-20T13:07:33;8.60;99.90
15288;DHT22;7745;48.708;9.026;2022-11-20T13:10:02;8.50;99.90
15288;DHT22;7745;48.708;9.026;2022-11-20T13:12:33;8.40;99.90
15288;DHT22;7745;48.708;9.026;2022-11-20T13:15:11;8.30;99.90
15288;DHT22;7745;48.708;9.026;2022-11-20T13:17:47;8.20;99.90
15288;DHT22;7745;48.708;9.026;2022-11-20T13:20:18;8.20;99.90
15288;DHT22;7745;48.708;9.026;2022-11-20T13:22:47;8.20;99.90
15288;DHT22;7745;48.708;9.026;2022-11-20T13:25:24;8.20;99.90
15288;DHT22;7745;48.708;9.026;2022-11-20T13:27:52;8.20;99.90
15288;DHT22;7745;48.708;9.026;2022-11-20T13:30:22;8.20;99.90
15288;DHT22;7745;48.708;9.026;2022-11-20T13:32:51;8.20;99.90
15288;DHT22;7745;48.708;9.026;2022-11-20T13:35:30;8.20;99.90
15288;DHT22;7745;48.708;9.026;2022-11-20T13:38:04;8.20;99.90
15288;DHT22;7745;48.708;9.026;2022-11-20T13:40:32;8.30;99.90
15288;DHT22;7745;48.708;9.026;2022-11-20T13:43:11;8.50;99.90
15288;DHT22;7745;48.708;9.026;2022-11-20T13:45:42;8.30;99.90
15288;DHT22;7745;48.708;9.026;2022-11-20T13:48:22;8.30;99.90
15288;DHT22;7745;48.708;9.026;2022-11-20T13:51:07;8.30;99.90
15288;DHT22;7745;48.708;9.026;2022-11-20T13:53:58;8.20;99.90
15288;DHT22;7745;48.708;9.026;2022-11-20T13:56:40;8.20;99.90
15288;DHT22;7745;48.708;9.026;2022-11-20T13:59:17;8.00;99.90
15288;DHT22;7745;48.708;9.026;2022-11-20T14:01:52;8.20;99.90
15288;DHT22;7745;48.708;9.026;2022-11-20T14:04:25;7.80;99.90
15288;DHT22;7745;48.708;9.026;2022-11-20T14:06:53;8.00;99.90
15288;DHT22;7745;48.708;9.026;2022-11-20T14:09:27;7.70;99.90
15288;DHT22;7745;48.708;9.026;2022-11-20T14:11:54;7.60;99.90
15288;DHT22;7745;48.708;9.026;2022-11-20T14:14:23;7.50;99.90
15288;DHT22;7745;48.708;9.026;2022-11-20T14:16:52;7.50;99.90
15288;DHT22;7745;48.708;9.026;2022-11-20T14:19:28;7.50;99.90
15288;DHT22;7745;48.708;9.026;2022-11-20T14:22:09;7.30;99.90
15288;DHT22;7745;48.708;9.026;2022-11-20T14:24:36;7.30;99.90
15288;DHT22;7745;48.708;9.026;2022-11-20T14:27:04;7.30;99.90
15288;DHT22;7745;48.708;9.026;2022-11-20T14:29:34;7.30;99.90
15288;DHT22;7745;48.708;9.026;2022-11-20T14:32:04;7.30;99.90
15288;DHT22;7745;48.708;9.026;2022-11-20T14:34:33;7.60;99.90
15288;DHT22;7745;48.708;9.026;2022-11-20T14:37:04;7.70;99.90
15288;DHT22;7745;48.708;9.026;2022-11-20T14:39:34;7.30;99.90
15288;DHT22;7745;48.708;9.026;2022-11-20T14:42:01;7.20;99.90
15288;DHT22;7745;48.708;9.026;2022-11-20T14:44:31;7.40;99.90
15288;DHT22;7745;48.708;9.026;2022-11-20T14:47:00;7.20;99.90
15288;DHT22;7745;48.708;9.026;2022-11-20T14:49:30;7.20;99.90
15288;DHT22;7745;48.708;9.026;2022-11-20T14:52:12;7.50;99.90
15288;DHT22;7745;48.708;9.026;2022-11-20T14:54:44;7.20;99.90
15288;DHT22;7745;48.708;9.026;2022-11-20T14:57:21;7.10;99.90
15288;DHT22;7745;48.708;9.026;2022-11-20T14:59:49;7.10;99.90
15288;DHT22;7745;48.708;9.026;2022-11-20T15:02:16;7.10;99.90
15288;DHT22;7745;48.708;9.026;2022-11-20T15:04:49;7.00;99.90
15288;DHT22;7745;48.708;9.026;2022-11-20T15:07:27;7.00;99.90
15288;DHT22;7745;48.708;9.026;2022-11-20T15:10:06;7.10;99.90
15288;DHT22;7745;48.708;9.026;2022-11-20T15:12:35;6.90;99.90
15288;DHT22;7745;48.708;9.026;2022-11-20T15:15:05;6.80;99.90
15288;DHT22;7745;48.708;9.026;2022-11-20T15:17:33;6.70;99.90
15288;DHT22;7745;48.708;9.026;2022-11-20T15:20:09;6.70;99.90
15288;DHT22;7745;48.708;9.026;2022-11-20T15:22:38;6.60;99.90
15288;DHT22;7745;48.708;9.026;2022-11-20T15:25:11;6.70;99.90
15288;DHT22;7745;48.708;9.026;2022-11-20T15:27:38;6.50;99.90
15288;DHT22;7745;48.708;9.026;2022-11-20T15:30:13;6.50;99.90
15288;DHT22;7745;48.708;9.026;2022-11-20T15:32:40;6.50;99.90
15288;DHT22;7745;48.708;9.026;2022-11-20T15:35:09;6.40;99.90
15288;DHT22;7745;48.708;9.026;2022-11-20T15:37:37;6.30;99.90
15288;DHT22;7745;48.708;9.026;2022-11-20T15:40:06;6.30;99.90
15288;DHT22;7745;48.708;9.026;2022-11-20T15:42:33;6.20;99.90
15288;DHT22;7745;48.708;9.026;2022-11-20T15:45:00;6.20;99.90
15288;DHT22;7745;48.708;9.026;2022-11-20T15:47:29;6.20;99.90
15288;DHT22;7745;48.708;9.026;2022-11-20T15:49:56;6.20;99.90
15288;DHT22;7745;48.708;9.026;2022-11-20T15:52:25;6.30;99.90
15288;DHT22;7745;48.708;9.026;2022-11-20T15:54:52;6.30;99.90
15288;DHT22;7745;48.708;9.026;2022-11-20T15:57:19;6.10;99.90
15288;DHT22;7745;48.708;9.026;2022-11-20T15:59:46;6.10;99.90
15288;DHT22;7745;48.708;9.026;2022-11-20T16:02:14;6.50;99.90
15288;DHT22;7745;48.708;9.026;2022-11-20T16:04:41;6.30;99.90
15288;DHT22;7745;48.708;9.026;2022-11-20T16:07:08;6.20;99.90
15288;DHT22;7745;48.708;9.026;2022-11-20T16:09:37;6.10;99.90
15288;DHT22;7745;48.708;9.026;2022-11-20T16:12:04;6.10;99.90
15288;DHT22;7745;48.708;9.026;2022-11-20T16:14:31;6.10;99.90
15288;DHT22;7745;48.708;9.026;2022-11-20T16:17:15;6.20;99.90
15288;DHT22;7745;48.708;9.026;2022-11-20T16:20:02;6.10;99.90
15288;DHT22;7745;48.708;9.026;2022-11-20T16:22:29;6.10;99.90
15288;DHT22;7745;48.708;9.026;2022-11-20T16:24:57;6.20;99.90
15288;DHT22;7745;48.708;9.026;2022-11-20T16:27:24;6.10;99.90